Time;durP1;ratioP1;P1;durP2;ratioP2;P2;SDS_P1;SDS_P2;PMS_P1;PMS_P2;Temp;Humidity;BMP_temperature;BMP_pressure;BME280_temperature;BME280_humidity;BME280_pressure;Samples;Min_cycle;Max_cycle;Signal;HPM_P1;HPM_P2
2022/12/15 00:40:58;;;;;;;7.00;4.53;;;-2.70;99.90;;;;;;4983084;28;20213;-74
2022/12/15 00:43:44;;;;;;;6.63;4.70;;;-2.70;99.90;;;;;;4961522;28;20176;-74
2022/12/15 00:49:00;;;;;;;9.23;4.67;;;-2.80;99.90;;;;;;4990050;28;20195;-73
2022/12/15 01:21:40;;;;;;;7.47;4.90;;;-3.20;99.90;;;;;;4993107;28;20190;-74
2022/12/15 01:24:05;;;;;;;7.87;5.00;;;-3.20;99.90;;;;;;4960652;28;20176;-74
2022/12/15 01:26:31;;;;;;;8.83;4.90;;;-3.30;99.90;;;;;;4970326;28;20182;-74
2022/12/15 01:28:57;;;;;;;8.20;5.27;;;-3.30;99.90;;;;;;4956618;29;20188;-74
2022/12/15 01:31:22;;;;;;;9.07;5.13;;;-3.30;99.90;;;;;;4961061;28;20180;-74
2022/12/15 01:33:55;;;;;;;6.13;4.10;;;-3.40;99.90;;;;;;4959847;28;20203;-73
2022/12/15 01:36:20;;;;;;;7.10;4.60;;;-3.40;99.90;;;;;;4959130;28;20294;-73
2022/12/15 01:38:46;;;;;;;7.97;4.97;;;-3.40;99.90;;;;;;4951142;28;20267;-72
2022/12/15 01:41:11;;;;;;;8.43;5.00;;;-3.40;99.90;;;;;;4957724;28;20202;-73
2022/12/15 01:43:39;;;;;;;9.40;5.30;;;-3.40;99.90;;;;;;4960337;28;20359;-73
2022/12/15 01:46:08;;;;;;;9.70;5.07;;;-3.40;99.90;;;;;;4959430;28;20180;-73
2022/12/15 01:48:40;;;;;;;7.53;5.00;;;-3.40;99.90;;;;;;4941399;29;20279;-73
2022/12/15 01:51:14;;;;;;;8.57;4.87;;;-3.40;99.90;;;;;;4965837;28;20179;-73
2022/12/15 01:53:50;;;;;;;9.73;5.37;;;-3.40;99.90;;;;;;4954431;28;20182;-72
2022/12/15 01:56:16;;;;;;;9.20;5.17;;;-3.40;99.90;;;;;;4941532;29;20168;-73
2022/12/15 01:58:47;;;;;;;7.50;5.00;;;-3.50;99.90;;;;;;4950907;28;20203;-72
2022/12/15 02:01:12;;;;;;;8.23;4.73;;;-3.50;99.90;;;;;;4958007;28;20172;-75
2022/12/15 02:03:39;;;;;;;8.23;4.87;;;-3.50;99.90;;;;;;4958007;28;20227;-73
2022/12/15 02:06:06;;;;;;;7.00;4.40;;;-3.50;99.90;;;;;;4958090;28;20192;-72
2022/12/15 02:08:32;;;;;;;6.60;4.57;;;-3.50;99.90;;;;;;4957077;28;20222;-72
2022/12/15 02:11:12;;;;;;;11.13;6.40;;;-3.50;99.90;;;;;;4966361;28;20176;-74
2022/12/15 02:13:54;;;;;;;8.77;5.80;;;-3.60;99.90;;;;;;4971451;28;20207;-74
2022/12/15 02:16:45;;;;;;;8.23;5.67;;;-3.60;99.90;;;;;;4960653;28;20196;-74
2022/12/15 02:19:22;;;;;;;6.97;5.00;;;-3.60;99.90;;;;;;4957695;28;20227;-74
2022/12/15 02:22:17;;;;;;;7.87;4.60;;;-3.70;99.90;;;;;;4964545;28;20283;-74
2022/12/15 02:24:51;;;;;;;7.17;4.60;;;-3.70;99.90;;;;;;4992071;28;20222;-74
2022/12/15 02:27:24;;;;;;;8.03;4.40;;;-3.70;99.90;;;;;;4972137;28;20179;-74
2022/12/15 02:30:13;;;;;;;8.60;5.00;;;-3.70;99.90;;;;;;4968563;28;20188;-74
2022/12/15 02:33:03;;;;;;;7.70;4.63;;;-3.80;99.90;;;;;;4965375;28;20183;-74
2022/12/15 02:35:34;;;;;;;7.97;4.40;;;-3.80;99.90;;;;;;4991920;28;20257;-73
2022/12/15 02:38:00;;;;;;;7.63;4.50;;;-3.90;99.90;;;;;;4943517;29;20184;-74
2022/12/15 02:40:28;;;;;;;7.47;4.57;;;-3.90;99.90;;;;;;4941583;29;20207;-74
2022/12/15 02:42:57;;;;;;;9.30;5.47;;;-3.70;99.90;;;;;;4941364;29;20200;-74
2022/12/15 02:45:54;;;;;;;9.87;5.00;;;-3.90;99.90;;;;;;4941036;29;20304;-74
2022/12/15 02:48:27;;;;;;;7.43;5.10;;;-3.90;99.90;;;;;;4940576;29;20191;-74
2022/12/15 02:51:35;;;;;;;8.00;4.87;;;-3.90;99.90;;;;;;4956757;29;20204;-74
2022/12/15 02:54:15;;;;;;;7.67;4.50;;;-3.90;99.90;;;;;;4959395;28;20176;-75
2022/12/15 02:57:13;;;;;;;8.70;5.20;;;-3.90;99.90;;;;;;4943130;28;20199;-74
2022/12/15 02:59:56;;;;;;;8.97;5.03;;;-3.90;99.90;;;;;;4931609;28;20212;-74
2022/12/15 03:02:25;;;;;;;6.30;4.33;;;-3.90;99.90;;;;;;4957376;28;20183;-74
2022/12/15 03:04:52;;;;;;;6.10;4.27;;;-3.90;99.90;;;;;;4959082;28;20204;-74
2022/12/15 03:07:17;;;;;;;8.10;4.70;;;-3.90;99.90;;;;;;4974990;28;20504;-74
2022/12/15 03:09:45;;;;;;;8.13;4.83;;;-3.90;99.90;;;;;;4958127;28;20176;-74
2022/12/15 03:12:11;;;;;;;9.27;5.63;;;-3.90;99.90;;;;;;4957286;28;20207;-74
2022/12/15 03:14:36;;;;;;;7.47;5.00;;;-4.00;99.90;;;;;;4959254;28;20176;-74
2022/12/15 03:17:05;;;;;;;7.97;4.67;;;-4.00;99.90;;;;;;4959234;28;20263;-74
2022/12/15 03:19:31;;;;;;;7.10;4.83;;;-3.80;99.90;;;;;;4955656;28;20231;-75
2022/12/15 03:21:59;;;;;;;7.93;4.83;;;-4.00;99.90;;;;;;4958732;28;20222;-74
2022/12/15 03:24:24;;;;;;;7.70;4.53;;;-4.00;99.90;;;;;;4955200;28;20204;-74
2022/12/15 03:26:50;;;;;;;7.40;4.93;;;-4.00;99.90;;;;;;4965370;28;20195;-74
2022/12/15 03:29:19;;;;;;;6.97;4.67;;;-4.00;99.90;;;;;;4960097;28;20175;-73
2022/12/15 03:31:47;;;;;;;9.17;5.10;;;-4.10;99.90;;;;;;4955831;28;20193;-74
2022/12/15 03:34:16;;;;;;;8.10;4.83;;;-4.10;99.90;;;;;;4966533;28;20203;-74
2022/12/15 03:36:41;;;;;;;6.83;4.10;;;-4.10;99.90;;;;;;4962537;28;20191;-74
2022/12/15 03:39:07;;;;;;;8.20;5.30;;;-4.10;99.90;;;;;;4949921;28;20204;-74
2022/12/15 03:41:35;;;;;;;7.13;4.93;;;-4.10;99.90;;;;;;4965669;28;20199;-74
2022/12/15 03:44:01;;;;;;;8.33;5.50;;;-4.10;99.90;;;;;;4961323;28;20179;-74
2022/12/15 03:46:26;;;;;;;7.67;4.80;;;-4.10;99.90;;;;;;4960512;28;20191;-74
2022/12/15 03:48:55;;;;;;;8.60;5.57;;;-4.10;99.90;;;;;;4974918;28;20200;-74
2022/12/15 03:51:22;;;;;;;9.13;5.80;;;-4.10;99.90;;;;;;4961671;28;20199;-74
2022/12/15 03:53:53;;;;;;;8.37;5.03;;;-4.10;99.90;;;;;;4956140;28;20184;-74
2022/12/15 03:56:19;;;;;;;9.00;5.60;;;-4.10;99.90;;;;;;4955855;28;20199;-75
2022/12/15 03:58:44;;;;;;;9.33;5.57;;;-4.20;99.90;;;;;;4963454;28;20286;-72
2022/12/15 04:01:26;;;;;;;7.77;5.07;;;-4.20;99.90;;;;;;4967194;28;20175;-72
2022/12/15 04:03:52;;;;;;;7.70;4.50;;;-4.20;99.90;;;;;;4963441;28;20206;-72
2022/12/15 04:06:18;;;;;;;7.00;4.43;;;-4.20;99.90;;;;;;4960730;28;20188;-73
2022/12/15 04:08:45;;;;;;;6.37;4.47;;;-4.20;99.90;;;;;;4954103;28;20190;-73
2022/12/15 04:11:13;;;;;;;8.00;4.93;;;-4.20;99.90;;;;;;4961964;28;20215;-73
2022/12/15 04:13:39;;;;;;;9.60;5.20;;;-4.30;99.90;;;;;;4966495;28;20171;-73
2022/12/15 04:16:07;;;;;;;8.30;5.03;;;-4.30;99.90;;;;;;4965313;28;20226;-73
2022/12/15 04:18:33;;;;;;;8.10;4.90;;;-4.30;99.90;;;;;;4951441;28;20259;-73
2022/12/15 04:20:59;;;;;;;9.10;5.83;;;-4.30;99.90;;;;;;4954460;28;20172;-73
2022/12/15 04:23:24;;;;;;;8.70;5.00;;;-4.40;99.90;;;;;;4970201;28;20192;-75
2022/12/15 05:32:24;;;;;;;7.80;5.10;;;-4.40;99.90;;;;;;4967315;28;20278;-73
2022/12/15 05:34:50;;;;;;;7.53;5.03;;;-4.40;99.90;;;;;;4951333;28;20236;-73
2022/12/15 05:37:15;;;;;;;8.17;5.00;;;-4.30;99.90;;;;;;4960181;28;20231;-74
2022/12/15 05:39:41;;;;;;;9.23;5.73;;;-4.30;99.90;;;;;;4959371;28;20204;-73
2022/12/15 05:42:07;;;;;;;9.83;5.57;;;-4.30;99.90;;;;;;4958672;28;20221;-73
2022/12/15 05:44:37;;;;;;;9.70;5.83;;;-4.30;99.90;;;;;;4960829;28;20179;-73
2022/12/15 05:47:03;;;;;;;8.47;5.77;;;-4.20;99.90;;;;;;4960848;28;20179;-73
2022/12/15 05:49:29;;;;;;;8.37;5.20;;;-4.20;99.90;;;;;;4960823;28;20175;-73
2022/12/15 05:51:56;;;;;;;10.53;6.20;;;-4.20;99.90;;;;;;4960720;28;20184;-73
2022/12/15 05:54:24;;;;;;;9.30;5.90;;;-4.20;99.90;;;;;;4960887;28;20200;-74
2022/12/15 05:56:52;;;;;;;7.43;5.10;;;-4.20;99.90;;;;;;4960576;28;20172;-73
2022/12/15 05:59:18;;;;;;;8.57;5.40;;;-4.20;99.90;;;;;;4977265;28;20254;-74
2022/12/15 06:01:45;;;;;;;8.63;5.77;;;-4.20;99.90;;;;;;4986168;28;20222;-75
2022/12/15 06:04:14;;;;;;;7.87;4.83;;;-4.20;99.90;;;;;;4983772;28;20202;-74
2022/12/15 06:06:42;;;;;;;8.47;5.37;;;-4.20;99.90;;;;;;4975256;28;20195;-73
2022/12/15 06:09:10;;;;;;;7.77;5.30;;;-4.20;99.90;;;;;;4964701;28;20275;-75
2022/12/15 06:11:36;;;;;;;7.57;5.00;;;-4.20;99.90;;;;;;4964903;28;20203;-76
2022/12/15 06:14:04;;;;;;;7.80;5.10;;;-4.20;99.90;;;;;;4966014;28;20274;-74
2022/12/15 06:16:30;;;;;;;8.63;5.57;;;-4.20;99.90;;;;;;4961977;28;20191;-73
2022/12/15 06:18:58;;;;;;;10.03;6.33;;;-4.20;99.90;;;;;;4956002;28;20215;-74
2022/12/15 06:21:27;;;;;;;12.93;7.50;;;-4.20;99.90;;;;;;4951005;28;20176;-74
2022/12/15 06:23:54;;;;;;;10.37;6.00;;;-4.20;99.90;;;;;;4956318;28;20201;-74
2022/12/15 06:26:26;;;;;;;12.03;7.23;;;-4.30;99.90;;;;;;4955006;28;20184;-74
2022/12/15 06:28:56;;;;;;;12.70;7.33;;;-4.30;99.90;;;;;;4951353;28;20199;-74
2022/12/15 06:31:24;;;;;;;11.47;7.20;;;-4.30;99.90;;;;;;4968123;28;20215;-74
2022/12/15 06:33:54;;;;;;;15.30;8.20;;;-4.40;99.90;;;;;;4955048;29;20197;-75
2022/12/15 06:36:20;;;;;;;13.73;7.53;;;-4.40;99.90;;;;;;4951832;28;20280;-75
2022/12/15 06:38:48;;;;;;;12.50;7.27;;;-4.40;99.90;;;;;;4940420;29;20212;-74
2022/12/15 06:41:17;;;;;;;18.43;9.70;;;-4.40;99.90;;;;;;4940319;29;20197;-74
2022/12/15 06:43:48;;;;;;;15.57;8.73;;;-4.40;99.90;;;;;;4940229;29;20410;-75
2022/12/15 06:46:13;;;;;;;13.03;7.80;;;-4.40;99.90;;;;;;4940122;29;20291;-74
2022/12/15 06:48:41;;;;;;;13.70;8.10;;;-4.20;99.90;;;;;;4940491;29;20204;-74
2022/12/15 06:51:07;;;;;;;11.87;7.13;;;-4.40;99.90;;;;;;4945485;28;20187;-75
2022/12/15 06:53:49;;;;;;;12.30;7.20;;;-4.30;99.90;;;;;;4959015;28;20211;-73
2022/12/15 06:56:30;;;;;;;12.43;6.57;;;-4.30;99.90;;;;;;4955508;28;20271;-74
2022/12/15 06:59:02;;;;;;;12.03;6.80;;;-4.20;99.90;;;;;;4957449;28;20208;-74
2022/12/15 07:01:28;;;;;;;12.70;6.80;;;-4.20;99.90;;;;;;4958941;28;20291;-74
2022/12/15 07:03:58;;;;;;;11.67;7.07;;;-4.20;99.90;;;;;;4958750;28;20187;-74
2022/12/15 07:06:24;;;;;;;16.90;8.97;;;-4.10;99.90;;;;;;4958427;28;20187;-74
2022/12/15 07:08:55;;;;;;;15.97;8.03;;;-4.10;99.90;;;;;;4958284;28;20185;-73
2022/12/15 07:11:21;;;;;;;14.93;8.47;;;-4.10;99.90;;;;;;4958797;28;20256;-73
2022/12/15 07:13:56;;;;;;;15.00;7.87;;;-4.00;99.90;;;;;;4959093;28;20328;-73
2022/12/15 07:16:23;;;;;;;14.40;7.53;;;-3.90;99.90;;;;;;4958154;28;20234;-71
2022/12/15 07:18:49;;;;;;;13.30;7.33;;;-4.00;99.90;;;;;;4957907;28;20203;-70
2022/12/15 07:21:15;;;;;;;15.63;7.93;;;-3.90;99.90;;;;;;4959033;28;20206;-72
2022/12/15 07:23:41;;;;;;;13.63;7.70;;;-3.90;99.90;;;;;;4958935;28;20176;-71
2022/12/15 07:26:08;;;;;;;13.37;7.73;;;-3.90;99.90;;;;;;4963175;28;20247;-73
2022/12/15 07:28:37;;;;;;;18.27;9.37;;;-3.80;99.90;;;;;;4939582;29;20200;-73
2022/12/15 07:31:05;;;;;;;14.17;7.87;;;-3.70;99.90;;;;;;4939925;29;20191;-73
2022/12/15 07:33:32;;;;;;;14.70;7.77;;;-3.70;99.90;;;;;;4939727;29;20236;-74
2022/12/15 07:35:57;;;;;;;18.37;9.23;;;-3.60;99.90;;;;;;4939623;29;20533;-74
2022/12/15 07:38:25;;;;;;;15.13;8.80;;;-3.60;99.90;;;;;;4944321;28;20192;-74
2022/12/15 07:40:56;;;;;;;15.80;8.43;;;-3.50;99.90;;;;;;4939667;29;20272;-74
2022/12/15 07:43:25;;;;;;;21.63;12.10;;;-3.50;99.90;;;;;;4945511;29;20227;-74
2022/12/15 07:45:52;;;;;;;18.17;10.13;;;-3.40;99.90;;;;;;4973395;28;20179;-74
2022/12/15 07:48:18;;;;;;;17.10;9.13;;;-3.40;99.90;;;;;;4986222;28;20255;-72
2022/12/15 07:50:44;;;;;;;14.80;9.03;;;-3.40;99.90;;;;;;4946861;29;20196;-73
2022/12/15 07:53:10;;;;;;;15.83;8.93;;;-3.30;99.90;;;;;;4939724;29;20169;-72
2022/12/15 07:55:36;;;;;;;15.10;9.20;;;-3.30;99.90;;;;;;4939523;28;20192;-73
2022/12/15 07:58:04;;;;;;;21.97;11.80;;;-3.30;99.90;;;;;;4950770;29;20187;-73
2022/12/15 08:00:30;;;;;;;19.47;9.97;;;-3.20;99.90;;;;;;4939255;29;20292;-73
2022/12/15 08:03:01;;;;;;;17.77;10.03;;;-3.10;99.90;;;;;;4938977;29;20272;-73
2022/12/15 08:05:29;;;;;;;23.83;11.30;;;-3.20;99.90;;;;;;4939459;29;20168;-73
2022/12/15 08:07:57;;;;;;;15.97;9.53;;;-3.10;99.90;;;;;;4945209;29;20165;-73
2022/12/15 08:10:25;;;;;;;16.43;9.17;;;-3.10;99.90;;;;;;4954912;29;20176;-72
2022/12/15 08:12:51;;;;;;;17.97;9.60;;;-3.00;99.90;;;;;;4946084;29;20249;-72
2022/12/15 08:15:17;;;;;;;17.13;9.40;;;-3.10;99.90;;;;;;4939442;29;20177;-73
2022/12/15 08:17:44;;;;;;;18.97;10.70;;;-3.00;99.90;;;;;;4939486;29;20188;-73
2022/12/15 08:20:10;;;;;;;15.63;9.33;;;-3.10;99.90;;;;;;4947044;28;20219;-73
2022/12/15 08:22:35;;;;;;;18.30;9.90;;;-3.00;99.90;;;;;;4978585;28;20200;-73
2022/12/15 08:25:03;;;;;;;17.87;9.67;;;-3.00;99.90;;;;;;4961505;28;20172;-73
2022/12/15 08:27:31;;;;;;;15.03;8.97;;;-3.00;99.90;;;;;;4962545;28;20211;-72
2022/12/15 08:29:57;;;;;;;14.07;8.47;;;-3.00;99.90;;;;;;4961167;28;20226;-71
2022/12/15 08:32:24;;;;;;;15.50;8.97;;;-2.90;99.90;;;;;;4961450;28;20266;-72
2022/12/15 08:34:52;;;;;;;14.53;8.23;;;-2.90;99.90;;;;;;4961799;28;20260;-72
2022/12/15 08:37:18;;;;;;;18.87;9.27;;;-2.90;99.90;;;;;;4958034;28;20231;-72
2022/12/15 08:39:44;;;;;;;23.37;12.13;;;-2.80;99.90;;;;;;4958336;29;20213;-72
2022/12/15 08:42:09;;;;;;;23.40;13.10;;;-2.80;99.90;;;;;;4942140;29;20181;-72
2022/12/15 08:44:37;;;;;;;19.80;11.47;;;-2.70;99.90;;;;;;4942371;29;20346;-72
2022/12/15 08:47:03;;;;;;;17.57;10.50;;;-2.70;99.90;;;;;;4960460;28;20183;-72
2022/12/15 08:49:31;;;;;;;17.87;10.20;;;-2.70;99.90;;;;;;4961650;28;20179;-72
2022/12/15 08:51:57;;;;;;;20.47;10.57;;;-2.70;99.90;;;;;;4960843;28;20187;-71
2022/12/15 08:54:22;;;;;;;17.77;10.10;;;-2.60;99.90;;;;;;4961267;28;20183;-71
2022/12/15 08:56:48;;;;;;;18.37;10.57;;;-2.60;99.90;;;;;;4959889;28;20203;-71
2022/12/15 08:59:14;;;;;;;20.17;10.90;;;-2.50;99.90;;;;;;4960970;28;20199;-72
2022/12/15 09:01:40;;;;;;;19.43;10.73;;;-2.50;99.90;;;;;;4961101;28;20391;-72
2022/12/15 09:04:06;;;;;;;17.83;10.13;;;-2.40;99.90;;;;;;4961050;28;20236;-71
2022/12/15 09:06:34;;;;;;;17.73;11.00;;;-2.40;99.90;;;;;;4956579;29;20191;-71
2022/12/15 09:09:08;;;;;;;16.67;9.70;;;-2.40;99.90;;;;;;4941369;28;20269;-72
2022/12/15 09:11:34;;;;;;;18.63;10.77;;;-2.40;99.90;;;;;;4941913;29;20233;-71
2022/12/15 09:14:03;;;;;;;16.20;9.63;;;-2.30;99.90;;;;;;4960548;28;20207;-72
2022/12/15 09:16:28;;;;;;;23.87;13.37;;;-2.30;99.90;;;;;;4960517;28;20229;-71
2022/12/15 09:18:56;;;;;;;24.27;13.43;;;-2.30;99.90;;;;;;4946149;28;20267;-72
2022/12/15 09:21:27;;;;;;;22.87;13.10;;;-2.30;99.90;;;;;;4941774;28;20260;-72
2022/12/15 09:23:56;;;;;;;23.23;12.87;;;-2.30;99.90;;;;;;4957586;29;20172;-71
2022/12/15 09:26:22;;;;;;;21.30;11.70;;;-2.20;99.90;;;;;;4955444;28;20172;-71
2022/12/15 09:28:49;;;;;;;18.70;10.83;;;-2.30;99.90;;;;;;4960588;28;20199;-72
2022/12/15 09:31:29;;;;;;;17.07;9.90;;;-2.20;99.90;;;;;;4956635;28;20192;-71
2022/12/15 09:33:58;;;;;;;19.47;11.00;;;-2.20;99.90;;;;;;4957036;29;20187;-71
2022/12/15 09:36:28;;;;;;;16.97;9.47;;;-2.20;99.90;;;;;;4956939;29;20200;-71
2022/12/15 09:38:54;;;;;;;22.77;11.77;;;-2.20;99.90;;;;;;4941308;28;20201;-71
2022/12/15 09:41:28;;;;;;;21.13;11.87;;;-2.20;99.90;;;;;;4960386;28;20199;-72
2022/12/15 09:44:02;;;;;;;20.70;10.97;;;-2.10;99.90;;;;;;4959358;28;20191;-72
2022/12/15 09:46:52;;;;;;;18.47;11.10;;;-2.10;99.90;;;;;;4960415;28;20168;-72
2022/12/15 09:49:48;;;;;;;16.37;10.13;;;-2.10;99.90;;;;;;4957247;28;20291;-72
2022/12/15 09:52:19;;;;;;;16.47;10.17;;;-2.00;99.90;;;;;;4957923;28;20207;-72
2022/12/15 09:54:47;;;;;;;18.13;9.73;;;-1.90;99.90;;;;;;4975989;28;20203;-72
2022/12/15 09:57:21;;;;;;;20.50;12.07;;;-1.90;99.90;;;;;;4966488;28;20188;-72
2022/12/15 10:00:22;;;;;;;27.43;14.77;;;-1.90;99.90;;;;;;4971404;28;20214;-72
2022/12/15 10:03:03;;;;;;;20.27;12.13;;;-1.90;99.90;;;;;;4959925;28;20195;-72
2022/12/15 10:05:43;;;;;;;19.93;11.03;;;-1.80;99.90;;;;;;4969715;28;20200;-71
2022/12/15 10:08:09;;;;;;;24.77;14.27;;;-1.80;99.90;;;;;;4956931;29;20204;-71
2022/12/15 10:10:52;;;;;;;20.43;12.30;;;-1.80;99.90;;;;;;4947317;29;20267;-72
2022/12/15 10:13:32;;;;;;;18.83;10.83;;;-1.80;99.90;;;;;;4956776;29;20225;-72
2022/12/15 10:16:06;;;;;;;20.67;11.73;;;-1.80;99.90;;;;;;4956516;28;20372;-71
2022/12/15 10:18:38;;;;;;;17.87;10.67;;;-1.80;99.90;;;;;;4943254;28;20279;-72
2022/12/15 10:21:12;;;;;;;16.57;10.47;;;-1.70;99.90;;;;;;4959805;28;20195;-71
2022/12/15 10:23:40;;;;;;;20.47;12.27;;;-1.70;99.90;;;;;;4959551;28;20171;-71
2022/12/15 10:26:18;;;;;;;20.93;13.13;;;-1.60;99.90;;;;;;4959778;28;20191;-71
2022/12/15 10:28:57;;;;;;;22.43;13.30;;;-1.60;99.90;;;;;;4959704;28;20199;-72
2022/12/15 10:31:43;;;;;;;23.23;13.37;;;-1.60;99.90;;;;;;4958890;28;20176;-72
2022/12/15 10:34:24;;;;;;;21.33;12.77;;;-1.60;99.90;;;;;;4959547;28;20176;-72
2022/12/15 10:36:51;;;;;;;23.97;14.00;;;-1.60;99.90;;;;;;4958907;28;20251;-72
2022/12/15 10:39:18;;;;;;;25.33;15.40;;;-1.60;99.90;;;;;;4959595;28;20200;-71
2022/12/15 10:42:04;;;;;;;24.60;14.17;;;-1.60;99.90;;;;;;4955878;29;20204;-72
2022/12/15 10:44:36;;;;;;;20.83;13.03;;;-1.60;99.90;;;;;;4941064;28;20205;-72
2022/12/15 10:47:21;;;;;;;18.60;12.20;;;-1.60;99.90;;;;;;4959176;28;20271;-72
2022/12/15 10:49:49;;;;;;;19.23;12.03;;;-1.60;99.90;;;;;;4958530;28;20235;-71
2022/12/15 10:52:17;;;;;;;17.87;11.90;;;-1.60;99.90;;;;;;4959430;28;20184;-71
2022/12/15 10:54:46;;;;;;;18.57;11.70;;;-1.60;99.90;;;;;;4963549;28;20184;-71
2022/12/15 10:57:20;;;;;;;16.23;11.23;;;-1.60;99.90;;;;;;4940335;29;20187;-72
2022/12/15 10:59:46;;;;;;;19.87;11.50;;;-1.50;99.90;;;;;;4958547;28;20218;-72
2022/12/15 11:02:23;;;;;;;17.80;10.77;;;-1.50;99.90;;;;;;4958873;28;20200;-72
2022/12/15 11:05:14;;;;;;;17.03;10.37;;;-1.40;99.90;;;;;;4975488;28;20222;-72
2022/12/15 11:07:47;;;;;;;13.57;8.77;;;-1.20;99.90;;;;;;4962292;28;20287;-72
2022/12/15 11:13:22;;;;;;;16.63;11.00;;;-0.90;99.90;;;;;;4956654;29;20176;-72
2022/12/15 11:15:50;;;;;;;15.87;11.00;;;-0.70;99.90;;;;;;4939847;29;20223;-72
2022/12/15 11:18:25;;;;;;;15.80;9.80;;;-0.60;99.90;;;;;;4956177;29;20176;-72
2022/12/15 11:21:14;;;;;;;14.47;9.93;;;-0.40;99.90;;;;;;4968943;28;20207;-72
2022/12/15 11:23:44;;;;;;;14.97;9.73;;;-0.10;99.90;;;;;;4954917;29;20204;-73
2022/12/15 11:26:46;;;;;;;17.07;10.13;;;0.10;99.90;;;;;;4973921;28;20291;-72
2022/12/15 11:29:33;;;;;;;15.73;10.03;;;0.30;99.90;;;;;;4975004;28;20294;-73
2022/12/15 11:31:59;;;;;;;15.97;11.03;;;0.50;99.90;;;;;;4974985;28;20180;-72
2022/12/15 11:34:38;;;;;;;18.57;11.90;;;0.60;99.90;;;;;;4958782;28;20195;-72
2022/12/15 11:37:31;;;;;;;18.07;11.90;;;0.70;99.90;;;;;;4958797;28;20194;-72
2022/12/15 11:40:20;;;;;;;18.07;12.20;;;0.80;99.90;;;;;;4974836;28;20200;-73
2022/12/15 11:43:27;;;;;;;17.73;11.13;;;0.80;99.90;;;;;;4963566;28;20176;-72
2022/12/15 11:46:16;;;;;;;16.67;11.00;;;1.00;99.90;;;;;;4943047;28;20267;-72
2022/12/15 11:48:56;;;;;;;14.50;9.90;;;1.10;99.90;;;;;;4956020;28;20225;-72
2022/12/15 11:51:42;;;;;;;16.07;10.77;;;1.20;99.90;;;;;;4970951;28;20192;-72
2022/12/15 11:54:33;;;;;;;16.27;10.63;;;1.30;99.90;;;;;;4943222;28;20262;-73
2022/12/15 11:57:37;;;;;;;17.20;11.10;;;1.40;99.90;;;;;;4952610;29;20216;-72
2022/12/15 12:00:18;;;;;;;15.17;10.43;;;1.60;99.90;;;;;;4942658;28;20219;-72
2022/12/15 12:02:55;;;;;;;17.60;11.50;;;1.80;99.90;;;;;;4943232;29;20169;-72
2022/12/15 12:05:42;;;;;;;15.57;11.10;;;1.90;99.90;;;;;;4957543;28;20205;-72
2022/12/15 12:08:42;;;;;;;16.57;11.63;;;1.90;99.90;;;;;;4958828;29;20213;-72
2022/12/15 12:11:22;;;;;;;16.80;11.40;;;1.90;99.90;;;;;;4959217;28;20352;-73
2022/12/15 12:14:23;;;;;;;13.23;9.70;;;1.90;99.90;;;;;;4962301;28;20183;-72
2022/12/15 12:17:30;;;;;;;14.67;9.80;;;1.90;99.90;;;;;;4958847;29;20200;-73
2022/12/15 12:20:07;;;;;;;17.10;11.00;;;2.00;99.90;;;;;;4941943;29;20222;-73
2022/12/15 12:22:42;;;;;;;16.60;11.33;;;2.20;99.90;;;;;;4958981;29;20237;-74
2022/12/15 12:25:17;;;;;;;13.57;9.50;;;2.20;99.90;;;;;;4959596;28;20161;-71
2022/12/15 12:28:07;;;;;;;14.93;9.97;;;2.30;99.90;;;;;;4942869;29;20160;-73
2022/12/15 12:30:41;;;;;;;13.27;9.77;;;2.40;99.90;;;;;;4960186;28;20200;-72
2022/12/15 12:33:22;;;;;;;14.43;9.67;;;2.60;99.90;;;;;;4961388;28;20264;-72
2022/12/15 12:36:01;;;;;;;13.87;9.60;;;2.70;99.90;;;;;;4961471;28;20202;-72
2022/12/15 12:38:37;;;;;;;14.00;10.00;;;2.80;99.90;;;;;;4961684;28;20203;-73
2022/12/15 12:41:09;;;;;;;14.03;10.03;;;2.80;99.90;;;;;;4961671;28;20184;-72
2022/12/15 12:43:43;;;;;;;15.20;10.77;;;2.90;99.90;;;;;;4961211;28;20172;-72
2022/12/15 12:46:30;;;;;;;14.03;10.13;;;2.90;99.90;;;;;;4961319;28;20175;-72
2022/12/15 12:49:14;;;;;;;14.03;10.10;;;2.80;99.90;;;;;;4961625;28;20161;-72
2022/12/15 12:51:48;;;;;;;13.07;9.67;;;2.70;99.90;;;;;;4958336;28;20199;-72
2022/12/15 12:54:34;;;;;;;13.70;9.87;;;2.60;99.90;;;;;;4958193;29;20252;-72
2022/12/15 12:57:21;;;;;;;14.60;10.20;;;2.40;99.90;;;;;;4942361;29;20181;-73
2022/12/15 13:00:06;;;;;;;15.40;9.80;;;2.30;99.90;;;;;;4953832;28;20204;-71
2022/12/15 13:02:33;;;;;;;13.53;9.77;;;2.20;99.90;;;;;;4961412;28;20191;-71
2022/12/15 13:05:30;;;;;;;14.30;9.93;;;2.20;99.90;;;;;;4961102;28;20263;-72
2022/12/15 13:08:04;;;;;;;16.70;11.03;;;2.10;99.90;;;;;;4958637;28;20168;-72
2022/12/15 13:10:37;;;;;;;15.17;10.60;;;2.10;99.90;;;;;;4976941;28;20163;-71
2022/12/15 13:13:33;;;;;;;12.77;9.50;;;2.00;99.90;;;;;;4976682;28;20176;-72
2022/12/15 13:16:04;;;;;;;13.70;8.97;;;2.00;99.90;;;;;;4954118;29;20169;-72
2022/12/15 13:18:53;;;;;;;14.77;9.80;;;1.90;99.90;;;;;;4957913;29;20207;-72
2022/12/15 13:21:43;;;;;;;13.20;9.30;;;1.90;99.90;;;;;;4952055;29;20181;-72
2022/12/15 13:24:25;;;;;;;13.53;9.53;;;1.80;99.90;;;;;;4959401;28;20263;-72
2022/12/15 13:27:08;;;;;;;14.63;9.50;;;1.70;99.90;;;;;;4957862;29;20173;-72
2022/12/15 13:29:53;;;;;;;14.97;8.73;;;1.50;99.90;;;;;;4949619;29;20268;-72
2022/12/15 13:32:31;;;;;;;12.70;8.87;;;1.40;99.90;;;;;;4941943;29;20228;-72
2022/12/15 13:34:59;;;;;;;13.60;9.17;;;1.10;99.90;;;;;;4960362;28;20232;-72
2022/12/15 13:37:43;;;;;;;13.77;9.33;;;1.00;99.90;;;;;;4959044;28;20191;-72
2022/12/15 13:40:48;;;;;;;13.33;9.10;;;0.80;99.90;;;;;;4960791;28;20303;-72
2022/12/15 13:43:26;;;;;;;13.50;8.53;;;0.70;99.90;;;;;;4960387;28;20236;-72
2022/12/15 13:46:00;;;;;;;13.27;8.77;;;0.50;99.90;;;;;;4960452;28;20196;-72
2022/12/15 13:48:29;;;;;;;13.30;8.37;;;0.50;99.90;;;;;;4960227;28;20172;-72
2022/12/15 13:51:05;;;;;;;13.63;8.73;;;0.40;99.90;;;;;;4967184;28;20177;-73
2022/12/15 13:53:49;;;;;;;11.90;8.07;;;0.40;99.90;;;;;;4941522;29;20176;-71
2022/12/15 13:56:37;;;;;;;11.57;7.77;;;0.50;99.90;;;;;;4941277;29;20184;-72
2022/12/15 13:59:12;;;;;;;11.13;7.60;;;0.50;99.90;;;;;;4941255;28;20208;-72
2022/12/15 14:01:47;;;;;;;11.77;8.33;;;0.50;99.90;;;;;;4960472;28;20255;-73
2022/12/15 14:04:16;;;;;;;12.47;8.57;;;0.50;99.90;;;;;;4959862;28;20266;-72
2022/12/15 14:07:01;;;;;;;13.67;8.87;;;0.60;99.90;;;;;;4960163;28;20180;-72
2022/12/15 14:09:34;;;;;;;12.97;8.83;;;0.70;99.90;;;;;;4960003;28;20267;-72
2022/12/15 14:12:02;;;;;;;14.57;9.03;;;0.70;99.90;;;;;;4959987;28;20200;-72
2022/12/15 14:14:35;;;;;;;14.13;9.53;;;0.80;99.90;;;;;;4959568;28;20188;-72
2022/12/15 14:17:06;;;;;;;15.83;9.57;;;0.80;99.90;;;;;;4959959;28;20179;-72
2022/12/15 14:19:41;;;;;;;16.37;9.70;;;0.80;99.90;;;;;;4959816;28;20207;-77
2022/12/15 14:22:26;;;;;;;14.17;9.67;;;0.80;99.90;;;;;;4959989;28;20175;-73
2022/12/15 14:25:02;;;;;;;13.47;9.53;;;0.80;99.90;;;;;;4959678;28;20449;-72
2022/12/15 14:27:32;;;;;;;15.30;9.50;;;0.80;99.90;;;;;;4958970;28;20248;-72
2022/12/15 14:30:24;;;;;;;15.70;9.80;;;0.80;99.90;;;;;;4959548;28;20179;-71
2022/12/15 14:33:12;;;;;;;13.33;9.40;;;0.80;99.90;;;;;;4959842;28;20374;-73
2022/12/15 14:35:46;;;;;;;12.63;8.83;;;0.80;99.90;;;;;;4959046;28;20191;-72
2022/12/15 14:38:19;;;;;;;12.90;8.23;;;0.70;99.90;;;;;;4959909;28;20210;-72
2022/12/15 14:40:48;;;;;;;13.43;8.63;;;0.70;99.90;;;;;;4945345;29;20206;-72
2022/12/15 14:43:21;;;;;;;11.80;8.17;;;0.60;99.90;;;;;;4940546;28;20177;-73
2022/12/15 14:45:55;;;;;;;10.17;7.20;;;0.60;99.90;;;;;;4956465;29;20188;-72
2022/12/15 14:48:28;;;;;;;11.70;8.17;;;0.50;99.90;;;;;;4959516;28;20172;-72
2022/12/15 14:50:58;;;;;;;11.73;7.77;;;0.40;99.90;;;;;;4959714;28;20164;-72
2022/12/15 14:53:27;;;;;;;11.80;7.83;;;0.40;99.90;;;;;;4963812;28;20201;-73
2022/12/15 14:55:55;;;;;;;11.80;8.00;;;0.30;99.90;;;;;;4940425;29;20176;-72
2022/12/15 14:58:24;;;;;;;10.83;7.87;;;0.20;99.90;;;;;;4940282;29;20184;-73
2022/12/15 15:00:53;;;;;;;13.43;8.07;;;0.20;99.90;;;;;;4940206;29;20200;-72
2022/12/15 15:03:22;;;;;;;11.93;7.83;;;0.10;99.90;;;;;;4956439;29;20196;-72
2022/12/15 15:05:50;;;;;;;12.10;8.20;;;0.00;99.90;;;;;;4946610;28;20180;-72
2022/12/15 15:08:51;;;;;;;12.43;7.83;;;0.00;99.90;;;;;;4959575;28;20187;-72
2022/12/15 15:11:32;;;;;;;13.33;8.57;;;-0.10;99.90;;;;;;4932956;29;20189;-72
2022/12/15 15:14:22;;;;;;;12.50;8.17;;;-0.20;99.90;;;;;;4947510;28;20245;-72
2022/12/15 15:17:05;;;;;;;13.37;8.67;;;-0.30;99.90;;;;;;4958969;28;20255;-71
2022/12/15 15:19:35;;;;;;;13.27;8.53;;;-0.30;99.90;;;;;;4960005;28;20269;-71
2022/12/15 15:22:01;;;;;;;13.23;8.73;;;-0.40;99.90;;;;;;4940054;29;20231;-71
2022/12/15 15:24:35;;;;;;;17.13;10.03;;;-0.50;99.90;;;;;;4952527;29;20180;-71
2022/12/15 15:27:35;;;;;;;14.23;9.03;;;-0.50;99.90;;;;;;4940153;29;20203;-72
2022/12/15 15:30:23;;;;;;;18.77;10.97;;;-0.60;99.90;;;;;;4938874;29;20188;-73
2022/12/15 15:32:58;;;;;;;17.17;11.40;;;-0.70;99.90;;;;;;4960468;28;20212;-71
2022/12/15 15:35:29;;;;;;;19.90;10.90;;;-0.80;99.90;;;;;;4958435;28;20179;-71